sensor_id;sensor_type;location;lat;lon;timestamp;temperature;humidity
80214;DHT22;69531;37.974;23.708;2023-05-10T00:00:58;23.70;29.60
80214;DHT22;69531;37.974;23.708;2023-05-10T00:03:23;23.70;29.60
80214;DHT22;69531;37.974;23.708;2023-05-10T00:05:49;23.70;29.60
80214;DHT22;69531;37.974;23.708;2023-05-10T00:08:15;23.70;29.60
80214;DHT22;69531;37.974;23.708;2023-05-10T00:10:41;23.70;29.60
80214;DHT22;69531;37.974;23.708;2023-05-10T00:13:06;23.70;29.70
80214;DHT22;69531;37.974;23.708;2023-05-10T00:15:32;23.70;29.70
80214;DHT22;69531;37.974;23.708;2023-05-10T00:17:58;23.70;29.70
80214;DHT22;69531;37.974;23.708;2023-05-10T00:20:24;23.60;29.60
80214;DHT22;69531;37.974;23.708;2023-05-10T00:22:49;23.70;29.70
80214;DHT22;69531;37.974;23.708;2023-05-10T00:25:15;23.70;29.70
80214;DHT22;69531;37.974;23.708;2023-05-10T00:27:41;23.60;29.60
80214;DHT22;69531;37.974;23.708;2023-05-10T00:30:07;23.60;29.70
80214;DHT22;69531;37.974;23.708;2023-05-10T00:32:33;23.60;29.70
80214;DHT22;69531;37.974;23.708;2023-05-10T00:34:58;23.70;29.80
80214;DHT22;69531;37.974;23.708;2023-05-10T00:37:24;23.60;29.70
80214;DHT22;69531;37.974;23.708;2023-05-10T00:39:50;23.70;30.70
80214;DHT22;69531;37.974;23.708;2023-05-10T00:42:16;23.60;29.70
80214;DHT22;69531;37.974;23.708;2023-05-10T00:44:41;23.60;29.70
80214;DHT22;69531;37.974;23.708;2023-05-10T00:47:07;23.60;29.80
80214;DHT22;69531;37.974;23.708;2023-05-10T00:49:34;23.60;29.70
80214;DHT22;69531;37.974;23.708;2023-05-10T00:52:01;23.60;29.70
80214;DHT22;69531;37.974;23.708;2023-05-10T00:54:28;23.60;29.80
80214;DHT22;69531;37.974;23.708;2023-05-10T00:56:53;23.60;29.80
80214;DHT22;69531;37.974;23.708;2023-05-10T00:59:20;23.60;29.70
80214;DHT22;69531;37.974;23.708;2023-05-10T01:01:46;23.60;29.70
80214;DHT22;69531;37.974;23.708;2023-05-10T01:04:13;23.60;29.70
80214;DHT22;69531;37.974;23.708;2023-05-10T01:06:39;23.60;29.60
80214;DHT22;69531;37.974;23.708;2023-05-10T01:09:05;23.60;29.60
80214;DHT22;69531;37.974;23.708;2023-05-10T01:11:33;23.60;29.60
80214;DHT22;69531;37.974;23.708;2023-05-10T01:13:59;23.60;29.50
80214;DHT22;69531;37.974;23.708;2023-05-10T01:16:26;23.60;29.50
80214;DHT22;69531;37.974;23.708;2023-05-10T01:18:53;23.60;29.50
80214;DHT22;69531;37.974;23.708;2023-05-10T01:30:01;23.60;29.40
80214;DHT22;69531;37.974;23.708;2023-05-10T01:35:22;23.60;29.50
80214;DHT22;69531;37.974;23.708;2023-05-10T01:38:37;23.60;29.50
80214;DHT22;69531;37.974;23.708;2023-05-10T01:41:28;23.60;29.40
80214;DHT22;69531;37.974;23.708;2023-05-10T01:44:10;23.60;29.40
80214;DHT22;69531;37.974;23.708;2023-05-10T01:46:41;23.60;29.40
80214;DHT22;69531;37.974;23.708;2023-05-10T01:49:24;23.60;29.40
80214;DHT22;69531;37.974;23.708;2023-05-10T01:51:53;23.60;29.30
80214;DHT22;69531;37.974;23.708;2023-05-10T01:54:21;23.60;29.30
80214;DHT22;69531;37.974;23.708;2023-05-10T01:56:50;23.60;29.30
80214;DHT22;69531;37.974;23.708;2023-05-10T01:59:19;23.60;29.30
80214;DHT22;69531;37.974;23.708;2023-05-10T02:01:46;23.60;29.30
80214;DHT22;69531;37.974;23.708;2023-05-10T02:04:15;23.60;29.30
80214;DHT22;69531;37.974;23.708;2023-05-10T02:06:42;23.60;29.20
80214;DHT22;69531;37.974;23.708;2023-05-10T02:09:10;23.60;29.20
80214;DHT22;69531;37.974;23.708;2023-05-10T02:11:39;23.60;29.10
80214;DHT22;69531;37.974;23.708;2023-05-10T02:14:07;23.60;29.10
80214;DHT22;69531;37.974;23.708;2023-05-10T02:16:35;23.60;29.10
80214;DHT22;69531;37.974;23.708;2023-05-10T02:19:02;23.60;29.10
80214;DHT22;69531;37.974;23.708;2023-05-10T02:21:29;23.60;29.10
80214;DHT22;69531;37.974;23.708;2023-05-10T02:23:57;23.60;29.10
80214;DHT22;69531;37.974;23.708;2023-05-10T02:26:24;23.60;29.10
80214;DHT22;69531;37.974;23.708;2023-05-10T02:28:52;23.60;29.10
80214;DHT22;69531;37.974;23.708;2023-05-10T02:31:19;23.60;29.10
80214;DHT22;69531;37.974;23.708;2023-05-10T02:33:46;23.60;29.00
80214;DHT22;69531;37.974;23.708;2023-05-10T02:36:14;23.60;29.00
80214;DHT22;69531;37.974;23.708;2023-05-10T02:38:41;23.60;29.10
80214;DHT22;69531;37.974;23.708;2023-05-10T02:41:08;23.60;29.00
80214;DHT22;69531;37.974;23.708;2023-05-10T02:43:35;23.60;29.00
80214;DHT22;69531;37.974;23.708;2023-05-10T02:46:01;23.60;29.10
80214;DHT22;69531;37.974;23.708;2023-05-10T02:48:27;23.60;29.00
80214;DHT22;69531;37.974;23.708;2023-05-10T02:50:55;23.60;29.00
80214;DHT22;69531;37.974;23.708;2023-05-10T02:53:31;23.60;29.00
80214;DHT22;69531;37.974;23.708;2023-05-10T02:56:00;23.60;29.00
80214;DHT22;69531;37.974;23.708;2023-05-10T02:58:27;23.60;29.00
80214;DHT22;69531;37.974;23.708;2023-05-10T03:00:52;23.60;29.00
80214;DHT22;69531;37.974;23.708;2023-05-10T03:03:19;23.60;29.00
80214;DHT22;69531;37.974;23.708;2023-05-10T03:05:45;23.50;28.90
80214;DHT22;69531;37.974;23.708;2023-05-10T03:08:11;23.60;29.00
80214;DHT22;69531;37.974;23.708;2023-05-10T03:10:45;23.60;29.00
80214;DHT22;69531;37.974;23.708;2023-05-10T03:13:23;23.60;29.00
80214;DHT22;69531;37.974;23.708;2023-05-10T03:16:02;23.50;29.00
80214;DHT22;69531;37.974;23.708;2023-05-10T03:19:06;23.50;28.90
80214;DHT22;69531;37.974;23.708;2023-05-10T03:21:38;23.50;29.00
80214;DHT22;69531;37.974;23.708;2023-05-10T03:24:08;23.50;29.00
80214;DHT22;69531;37.974;23.708;2023-05-10T03:26:35;23.50;28.90
80214;DHT22;69531;37.974;23.708;2023-05-10T03:29:02;23.50;28.90
80214;DHT22;69531;37.974;23.708;2023-05-10T03:31:29;23.50;28.90
80214;DHT22;69531;37.974;23.708;2023-05-10T03:33:55;23.50;28.90
80214;DHT22;69531;37.974;23.708;2023-05-10T03:36:21;23.50;28.80
80214;DHT22;69531;37.974;23.708;2023-05-10T03:38:47;23.50;28.80
80214;DHT22;69531;37.974;23.708;2023-05-10T03:41:12;23.50;28.80
80214;DHT22;69531;37.974;23.708;2023-05-10T03:43:38;23.50;28.80
80214;DHT22;69531;37.974;23.708;2023-05-10T03:46:04;23.50;28.70
80214;DHT22;69531;37.974;23.708;2023-05-10T03:48:31;23.50;28.80
80214;DHT22;69531;37.974;23.708;2023-05-10T03:50:57;23.50;28.70
80214;DHT22;69531;37.974;23.708;2023-05-10T03:53:23;23.50;28.70
80214;DHT22;69531;37.974;23.708;2023-05-10T03:55:49;23.50;28.70
80214;DHT22;69531;37.974;23.708;2023-05-10T03:58:15;23.50;28.70
80214;DHT22;69531;37.974;23.708;2023-05-10T04:00:41;23.50;28.70
80214;DHT22;69531;37.974;23.708;2023-05-10T04:03:12;23.50;28.70
80214;DHT22;69531;37.974;23.708;2023-05-10T04:05:38;23.50;28.60
80214;DHT22;69531;37.974;23.708;2023-05-10T04:08:04;23.50;28.60
80214;DHT22;69531;37.974;23.708;2023-05-10T04:10:31;23.50;28.60
80214;DHT22;69531;37.974;23.708;2023-05-10T04:12:56;23.60;28.60
80214;DHT22;69531;37.974;23.708;2023-05-10T04:15:22;23.50;28.60
80214;DHT22;69531;37.974;23.708;2023-05-10T04:17:49;23.50;28.60
80214;DHT22;69531;37.974;23.708;2023-05-10T04:20:16;23.50;28.70
80214;DHT22;69531;37.974;23.708;2023-05-10T04:22:42;23.50;29.00
80214;DHT22;69531;37.974;23.708;2023-05-10T04:25:08;23.60;29.10
80214;DHT22;69531;37.974;23.708;2023-05-10T04:27:34;23.50;29.10
80214;DHT22;69531;37.974;23.708;2023-05-10T04:29:59;23.60;29.20
80214;DHT22;69531;37.974;23.708;2023-05-10T04:32:25;23.50;29.10
80214;DHT22;69531;37.974;23.708;2023-05-10T04:34:51;23.50;29.00
80214;DHT22;69531;37.974;23.708;2023-05-10T04:37:17;23.50;29.10
80214;DHT22;69531;37.974;23.708;2023-05-10T04:39:43;23.50;28.90
80214;DHT22;69531;37.974;23.708;2023-05-10T04:42:09;23.50;29.00
80214;DHT22;69531;37.974;23.708;2023-05-10T04:44:35;23.50;28.90
80214;DHT22;69531;37.974;23.708;2023-05-10T04:47:01;23.50;28.90
80214;DHT22;69531;37.974;23.708;2023-05-10T04:49:28;23.50;28.80
80214;DHT22;69531;37.974;23.708;2023-05-10T04:51:55;23.50;28.80
80214;DHT22;69531;37.974;23.708;2023-05-10T04:54:21;23.50;28.80
80214;DHT22;69531;37.974;23.708;2023-05-10T04:56:46;23.60;28.80
80214;DHT22;69531;37.974;23.708;2023-05-10T04:59:12;23.50;28.70
80214;DHT22;69531;37.974;23.708;2023-05-10T05:01:38;23.60;28.70
80214;DHT22;69531;37.974;23.708;2023-05-10T05:04:04;23.60;28.70
80214;DHT22;69531;37.974;23.708;2023-05-10T05:06:30;23.60;28.70
80214;DHT22;69531;37.974;23.708;2023-05-10T05:08:56;23.60;28.70
80214;DHT22;69531;37.974;23.708;2023-05-10T05:11:21;23.60;28.60
80214;DHT22;69531;37.974;23.708;2023-05-10T05:13:47;23.60;28.60
80214;DHT22;69531;37.974;23.708;2023-05-10T05:16:13;23.70;28.50
80214;DHT22;69531;37.974;23.708;2023-05-10T05:18:39;23.70;28.50
80214;DHT22;69531;37.974;23.708;2023-05-10T05:21:15;23.70;28.40
80214;DHT22;69531;37.974;23.708;2023-05-10T05:23:41;23.80;28.30
80214;DHT22;69531;37.974;23.708;2023-05-10T05:26:07;23.80;28.40
80214;DHT22;69531;37.974;23.708;2023-05-10T05:28:32;23.90;28.30
80214;DHT22;69531;37.974;23.708;2023-05-10T05:31:05;23.90;28.30
80214;DHT22;69531;37.974;23.708;2023-05-10T05:33:31;23.80;28.30
80214;DHT22;69531;37.974;23.708;2023-05-10T05:35:57;23.80;28.20
80214;DHT22;69531;37.974;23.708;2023-05-10T05:38:22;23.90;28.20
80214;DHT22;69531;37.974;23.708;2023-05-10T05:40:49;23.80;28.30
80214;DHT22;69531;37.974;23.708;2023-05-10T05:43:14;23.80;28.30
80214;DHT22;69531;37.974;23.708;2023-05-10T05:45:40;23.80;28.20
80214;DHT22;69531;37.974;23.708;2023-05-10T05:48:06;23.80;28.30
80214;DHT22;69531;37.974;23.708;2023-05-10T05:50:32;23.80;28.20
80214;DHT22;69531;37.974;23.708;2023-05-10T05:52:57;23.90;28.20
80214;DHT22;69531;37.974;23.708;2023-05-10T05:55:23;23.90;28.20
80214;DHT22;69531;37.974;23.708;2023-05-10T05:57:49;23.90;28.20
80214;DHT22;69531;37.974;23.708;2023-05-10T06:00:15;23.90;28.20
80214;DHT22;69531;37.974;23.708;2023-05-10T06:02:41;23.90;28.10
80214;DHT22;69531;37.974;23.708;2023-05-10T06:05:07;23.90;28.10
80214;DHT22;69531;37.974;23.708;2023-05-10T06:07:33;23.90;28.00
80214;DHT22;69531;37.974;23.708;2023-05-10T06:09:59;23.90;28.10
80214;DHT22;69531;37.974;23.708;2023-05-10T06:12:25;23.90;28.00
80214;DHT22;69531;37.974;23.708;2023-05-10T06:14:50;23.90;28.10
80214;DHT22;69531;37.974;23.708;2023-05-10T06:17:16;23.90;28.00
80214;DHT22;69531;37.974;23.708;2023-05-10T06:19:42;23.90;27.90
80214;DHT22;69531;37.974;23.708;2023-05-10T06:22:07;24.00;28.00
80214;DHT22;69531;37.974;23.708;2023-05-10T06:24:33;24.00;27.90
80214;DHT22;69531;37.974;23.708;2023-05-10T06:26:59;24.00;28.00
80214;DHT22;69531;37.974;23.708;2023-05-10T06:29:26;24.00;27.80
80214;DHT22;69531;37.974;23.708;2023-05-10T06:31:51;24.00;27.80
80214;DHT22;69531;37.974;23.708;2023-05-10T06:34:17;24.10;27.70
80214;DHT22;69531;37.974;23.708;2023-05-10T06:36:43;24.10;27.80
80214;DHT22;69531;37.974;23.708;2023-05-10T06:39:08;24.10;27.60
80214;DHT22;69531;37.974;23.708;2023-05-10T06:41:34;24.10;27.70
80214;DHT22;69531;37.974;23.708;2023-05-10T06:44:00;24.10;27.60
80214;DHT22;69531;37.974;23.708;2023-05-10T06:46:26;24.10;27.60
80214;DHT22;69531;37.974;23.708;2023-05-10T06:48:51;24.10;27.60
80214;DHT22;69531;37.974;23.708;2023-05-10T06:51:17;24.10;27.60
80214;DHT22;69531;37.974;23.708;2023-05-10T06:53:43;24.10;27.50
80214;DHT22;69531;37.974;23.708;2023-05-10T06:56:09;24.10;27.50
80214;DHT22;69531;37.974;23.708;2023-05-10T06:58:34;24.10;27.50
80214;DHT22;69531;37.974;23.708;2023-05-10T07:01:04;24.10;27.50
80214;DHT22;69531;37.974;23.708;2023-05-10T07:03:31;24.10;27.40
80214;DHT22;69531;37.974;23.708;2023-05-10T07:06:03;24.10;28.20
80214;DHT22;69531;37.974;23.708;2023-05-10T07:08:33;24.10;27.50
80214;DHT22;69531;37.974;23.708;2023-05-10T07:11:05;24.10;27.40
80214;DHT22;69531;37.974;23.708;2023-05-10T07:13:35;24.10;27.40
80214;DHT22;69531;37.974;23.708;2023-05-10T07:16:02;24.20;27.40
80214;DHT22;69531;37.974;23.708;2023-05-10T07:18:28;24.20;27.40
80214;DHT22;69531;37.974;23.708;2023-05-10T07:20:54;24.20;27.40
80214;DHT22;69531;37.974;23.708;2023-05-10T07:23:20;24.20;27.40
80214;DHT22;69531;37.974;23.708;2023-05-10T07:25:49;24.20;27.40
80214;DHT22;69531;37.974;23.708;2023-05-10T07:28:17;24.20;27.40
80214;DHT22;69531;37.974;23.708;2023-05-10T07:30:43;24.20;27.30
80214;DHT22;69531;37.974;23.708;2023-05-10T07:33:10;24.20;27.40
80214;DHT22;69531;37.974;23.708;2023-05-10T07:35:37;24.20;27.30
80214;DHT22;69531;37.974;23.708;2023-05-10T07:38:03;24.20;27.30
80214;DHT22;69531;37.974;23.708;2023-05-10T07:40:29;24.20;27.30
80214;DHT22;69531;37.974;23.708;2023-05-10T07:42:55;24.20;27.40
80214;DHT22;69531;37.974;23.708;2023-05-10T07:45:20;24.20;27.40
80214;DHT22;69531;37.974;23.708;2023-05-10T07:47:46;24.20;27.40
80214;DHT22;69531;37.974;23.708;2023-05-10T07:50:12;24.20;27.30
80214;DHT22;69531;37.974;23.708;2023-05-10T07:52:38;24.20;27.40
80214;DHT22;69531;37.974;23.708;2023-05-10T07:55:03;24.20;27.30
80214;DHT22;69531;37.974;23.708;2023-05-10T07:57:30;24.20;27.40
80214;DHT22;69531;37.974;23.708;2023-05-10T07:59:56;24.20;27.40
80214;DHT22;69531;37.974;23.708;2023-05-10T08:02:21;24.20;27.30
80214;DHT22;69531;37.974;23.708;2023-05-10T08:04:47;24.20;27.40
80214;DHT22;69531;37.974;23.708;2023-05-10T08:07:13;24.20;27.40
80214;DHT22;69531;37.974;23.708;2023-05-10T08:09:38;24.10;27.30
80214;DHT22;69531;37.974;23.708;2023-05-10T08:12:04;24.10;27.30
80214;DHT22;69531;37.974;23.708;2023-05-10T08:14:30;24.20;27.40
80214;DHT22;69531;37.974;23.708;2023-05-10T08:16:56;24.20;27.30
80214;DHT22;69531;37.974;23.708;2023-05-10T08:19:22;24.20;27.30
80214;DHT22;69531;37.974;23.708;2023-05-10T08:21:48;24.20;27.30
80214;DHT22;69531;37.974;23.708;2023-05-10T08:24:14;24.20;27.20
80214;DHT22;69531;37.974;23.708;2023-05-10T08:26:40;24.20;27.20
80214;DHT22;69531;37.974;23.708;2023-05-10T08:29:05;24.30;27.20
80214;DHT22;69531;37.974;23.708;2023-05-10T08:31:31;24.30;27.10
80214;DHT22;69531;37.974;23.708;2023-05-10T08:33:57;24.20;26.90
80214;DHT22;69531;37.974;23.708;2023-05-10T08:36:22;24.30;27.00
80214;DHT22;69531;37.974;23.708;2023-05-10T08:38:53;24.20;27.00
80214;DHT22;69531;37.974;23.708;2023-05-10T08:41:23;24.20;26.90
80214;DHT22;69531;37.974;23.708;2023-05-10T08:43:53;24.20;27.00
80214;DHT22;69531;37.974;23.708;2023-05-10T08:46:21;24.20;27.00
80214;DHT22;69531;37.974;23.708;2023-05-10T08:48:49;24.10;27.00
80214;DHT22;69531;37.974;23.708;2023-05-10T08:51:20;24.10;27.00
80214;DHT22;69531;37.974;23.708;2023-05-10T08:53:47;24.20;27.00
80214;DHT22;69531;37.974;23.708;2023-05-10T08:56:13;24.20;27.00
80214;DHT22;69531;37.974;23.708;2023-05-10T08:58:41;24.20;27.00
80214;DHT22;69531;37.974;23.708;2023-05-10T09:01:07;24.20;26.90
80214;DHT22;69531;37.974;23.708;2023-05-10T09:03:34;24.20;26.90
80214;DHT22;69531;37.974;23.708;2023-05-10T09:06:00;24.20;27.00
80214;DHT22;69531;37.974;23.708;2023-05-10T09:08:26;24.20;26.90
80214;DHT22;69531;37.974;23.708;2023-05-10T09:10:54;24.20;26.90
80214;DHT22;69531;37.974;23.708;2023-05-10T09:13:21;24.20;26.90
80214;DHT22;69531;37.974;23.708;2023-05-10T09:15:48;24.20;26.90
80214;DHT22;69531;37.974;23.708;2023-05-10T09:18:14;24.20;26.90
80214;DHT22;69531;37.974;23.708;2023-05-10T09:20:40;24.20;26.90
80214;DHT22;69531;37.974;23.708;2023-05-10T09:23:06;24.20;26.90
80214;DHT22;69531;37.974;23.708;2023-05-10T09:25:33;24.20;26.90
80214;DHT22;69531;37.974;23.708;2023-05-10T09:27:59;24.20;26.90
80214;DHT22;69531;37.974;23.708;2023-05-10T09:30:27;24.20;26.90
80214;DHT22;69531;37.974;23.708;2023-05-10T09:32:54;24.20;26.90
80214;DHT22;69531;37.974;23.708;2023-05-10T09:35:22;24.20;27.80
80214;DHT22;69531;37.974;23.708;2023-05-10T09:37:51;24.20;26.80
80214;DHT22;69531;37.974;23.708;2023-05-10T09:40:22;24.20;26.70
80214;DHT22;69531;37.974;23.708;2023-05-10T09:45:29;24.20;26.70
80214;DHT22;69531;37.974;23.708;2023-05-10T09:47:56;24.20;26.70
80214;DHT22;69531;37.974;23.708;2023-05-10T09:50:22;24.20;26.80
80214;DHT22;69531;37.974;23.708;2023-05-10T09:52:53;24.20;26.70
80214;DHT22;69531;37.974;23.708;2023-05-10T09:55:24;24.20;26.70
80214;DHT22;69531;37.974;23.708;2023-05-10T09:57:59;24.20;26.60
80214;DHT22;69531;37.974;23.708;2023-05-10T10:00:25;24.30;26.70
80214;DHT22;69531;37.974;23.708;2023-05-10T10:03:00;24.20;26.60
80214;DHT22;69531;37.974;23.708;2023-05-10T10:05:31;24.30;26.60
80214;DHT22;69531;37.974;23.708;2023-05-10T10:07:57;24.20;26.60
80214;DHT22;69531;37.974;23.708;2023-05-10T10:10:27;24.20;26.60
80214;DHT22;69531;37.974;23.708;2023-05-10T10:12:54;24.20;26.60
80214;DHT22;69531;37.974;23.708;2023-05-10T10:15:21;24.20;26.60
80214;DHT22;69531;37.974;23.708;2023-05-10T10:17:48;24.20;26.60
80214;DHT22;69531;37.974;23.708;2023-05-10T10:20:15;24.20;26.60
80214;DHT22;69531;37.974;23.708;2023-05-10T10:22:40;24.20;26.70
80214;DHT22;69531;37.974;23.708;2023-05-10T10:25:08;24.30;26.70
80214;DHT22;69531;37.974;23.708;2023-05-10T10:27:55;24.30;26.50
80214;DHT22;69531;37.974;23.708;2023-05-10T10:36:20;24.20;26.50
80214;DHT22;69531;37.974;23.708;2023-05-10T10:49:48;24.30;26.50
80214;DHT22;69531;37.974;23.708;2023-05-10T10:54:40;24.20;26.70
80214;DHT22;69531;37.974;23.708;2023-05-10T10:57:14;24.10;27.60
80214;DHT22;69531;37.974;23.708;2023-05-10T10:59:43;24.20;26.70
80214;DHT22;69531;37.974;23.708;2023-05-10T11:02:10;24.20;26.80
80214;DHT22;69531;37.974;23.708;2023-05-10T11:04:42;24.20;26.80
80214;DHT22;69531;37.974;23.708;2023-05-10T11:07:19;24.20;26.80
80214;DHT22;69531;37.974;23.708;2023-05-10T11:09:46;24.20;26.80
80214;DHT22;69531;37.974;23.708;2023-05-10T11:12:12;24.20;26.90
80214;DHT22;69531;37.974;23.708;2023-05-10T11:14:38;24.20;26.90
80214;DHT22;69531;37.974;23.708;2023-05-10T11:17:24;24.20;26.90
80214;DHT22;69531;37.974;23.708;2023-05-10T11:20:06;24.20;27.00
80214;DHT22;69531;37.974;23.708;2023-05-10T11:22:52;24.20;27.00
80214;DHT22;69531;37.974;23.708;2023-05-10T11:25:19;24.20;27.10
80214;DHT22;69531;37.974;23.708;2023-05-10T11:27:46;24.10;27.00
80214;DHT22;69531;37.974;23.708;2023-05-10T11:30:13;24.20;27.10
80214;DHT22;69531;37.974;23.708;2023-05-10T11:32:40;24.20;27.10
80214;DHT22;69531;37.974;23.708;2023-05-10T11:35:10;24.20;27.20
80214;DHT22;69531;37.974;23.708;2023-05-10T11:37:36;24.20;27.10
80214;DHT22;69531;37.974;23.708;2023-05-10T11:40:02;24.20;27.10
80214;DHT22;69531;37.974;23.708;2023-05-10T11:42:31;24.20;27.20
80214;DHT22;69531;37.974;23.708;2023-05-10T11:44:57;24.20;27.40
80214;DHT22;69531;37.974;23.708;2023-05-10T11:47:23;24.20;27.40
80214;DHT22;69531;37.974;23.708;2023-05-10T11:49:50;24.20;27.40
80214;DHT22;69531;37.974;23.708;2023-05-10T11:52:19;24.20;27.60
80214;DHT22;69531;37.974;23.708;2023-05-10T11:54:52;24.20;27.50
80214;DHT22;69531;37.974;23.708;2023-05-10T11:57:19;24.20;27.50
80214;DHT22;69531;37.974;23.708;2023-05-10T11:59:47;24.20;27.60
80214;DHT22;69531;37.974;23.708;2023-05-10T12:02:15;24.20;27.50
80214;DHT22;69531;37.974;23.708;2023-05-10T12:04:41;24.20;27.60
80214;DHT22;69531;37.974;23.708;2023-05-10T12:07:07;24.20;27.60
80214;DHT22;69531;37.974;23.708;2023-05-10T12:09:33;24.20;27.70
80214;DHT22;69531;37.974;23.708;2023-05-10T12:11:58;24.20;27.60
80214;DHT22;69531;37.974;23.708;2023-05-10T12:14:25;24.20;27.60
80214;DHT22;69531;37.974;23.708;2023-05-10T12:16:51;24.20;27.70
80214;DHT22;69531;37.974;23.708;2023-05-10T12:19:20;24.20;28.10
80214;DHT22;69531;37.974;23.708;2023-05-10T12:21:47;24.20;27.80
80214;DHT22;69531;37.974;23.708;2023-05-10T12:24:13;24.20;27.80
80214;DHT22;69531;37.974;23.708;2023-05-10T12:26:41;24.20;27.80
80214;DHT22;69531;37.974;23.708;2023-05-10T12:29:18;24.20;27.80
80214;DHT22;69531;37.974;23.708;2023-05-10T12:31:58;24.30;27.90
80214;DHT22;69531;37.974;23.708;2023-05-10T12:34:34;24.20;28.70
80214;DHT22;69531;37.974;23.708;2023-05-10T12:37:02;24.20;27.90
80214;DHT22;69531;37.974;23.708;2023-05-10T12:39:41;24.20;27.90
80214;DHT22;69531;37.974;23.708;2023-05-10T12:42:07;24.20;27.80
80214;DHT22;69531;37.974;23.708;2023-05-10T12:44:33;24.20;28.00
80214;DHT22;69531;37.974;23.708;2023-05-10T12:46:59;24.20;27.90
80214;DHT22;69531;37.974;23.708;2023-05-10T12:49:25;24.20;28.00
80214;DHT22;69531;37.974;23.708;2023-05-10T12:51:51;24.20;28.00
80214;DHT22;69531;37.974;23.708;2023-05-10T12:54:16;24.20;28.00
80214;DHT22;69531;37.974;23.708;2023-05-10T12:56:43;24.10;27.90
80214;DHT22;69531;37.974;23.708;2023-05-10T12:59:08;24.20;27.90
80214;DHT22;69531;37.974;23.708;2023-05-10T13:01:34;24.20;27.90
80214;DHT22;69531;37.974;23.708;2023-05-10T13:04:00;24.20;28.00
80214;DHT22;69531;37.974;23.708;2023-05-10T13:06:26;24.20;28.00
80214;DHT22;69531;37.974;23.708;2023-05-10T13:08:51;24.10;28.00
80214;DHT22;69531;37.974;23.708;2023-05-10T13:11:17;24.10;28.00
80214;DHT22;69531;37.974;23.708;2023-05-10T13:13:45;24.10;28.10
80214;DHT22;69531;37.974;23.708;2023-05-10T13:16:10;24.10;28.10
80214;DHT22;69531;37.974;23.708;2023-05-10T13:18:36;24.10;28.10
80214;DHT22;69531;37.974;23.708;2023-05-10T13:21:02;24.10;28.20
80214;DHT22;69531;37.974;23.708;2023-05-10T13:23:30;24.10;28.20
80214;DHT22;69531;37.974;23.708;2023-05-10T13:25:56;24.10;28.20
80214;DHT22;69531;37.974;23.708;2023-05-10T13:28:22;24.10;28.20
80214;DHT22;69531;37.974;23.708;2023-05-10T13:30:48;24.10;28.30
80214;DHT22;69531;37.974;23.708;2023-05-10T13:33:13;24.10;28.30
80214;DHT22;69531;37.974;23.708;2023-05-10T13:35:39;24.10;28.30
80214;DHT22;69531;37.974;23.708;2023-05-10T13:38:05;24.10;28.30
80214;DHT22;69531;37.974;23.708;2023-05-10T13:40:33;24.10;28.40
80214;DHT22;69531;37.974;23.708;2023-05-10T13:42:59;24.10;28.30
80214;DHT22;69531;37.974;23.708;2023-05-10T13:45:24;24.10;28.40
80214;DHT22;69531;37.974;23.708;2023-05-10T13:47:50;24.10;28.50
80214;DHT22;69531;37.974;23.708;2023-05-10T13:50:17;24.10;28.50
80214;DHT22;69531;37.974;23.708;2023-05-10T13:52:43;24.10;28.50
80214;DHT22;69531;37.974;23.708;2023-05-10T13:55:09;24.10;28.40
80214;DHT22;69531;37.974;23.708;2023-05-10T13:57:37;24.10;28.50
80214;DHT22;69531;37.974;23.708;2023-05-10T14:00:03;24.10;28.50
80214;DHT22;69531;37.974;23.708;2023-05-10T14:02:30;24.00;28.50
80214;DHT22;69531;37.974;23.708;2023-05-10T14:04:56;24.10;28.60
80214;DHT22;69531;37.974;23.708;2023-05-10T14:07:21;24.10;28.60
80214;DHT22;69531;37.974;23.708;2023-05-10T14:09:47;24.10;28.60
80214;DHT22;69531;37.974;23.708;2023-05-10T14:12:13;24.00;28.70
80214;DHT22;69531;37.974;23.708;2023-05-10T14:14:40;24.00;28.50
80214;DHT22;69531;37.974;23.708;2023-05-10T14:17:05;24.10;28.60
80214;DHT22;69531;37.974;23.708;2023-05-10T14:19:31;24.10;28.50
80214;DHT22;69531;37.974;23.708;2023-05-10T14:21:59;24.10;28.50
80214;DHT22;69531;37.974;23.708;2023-05-10T14:24:24;24.10;28.60
80214;DHT22;69531;37.974;23.708;2023-05-10T14:26:50;24.10;28.50
80214;DHT22;69531;37.974;23.708;2023-05-10T14:29:19;24.10;28.60
80214;DHT22;69531;37.974;23.708;2023-05-10T14:31:45;24.10;28.50
80214;DHT22;69531;37.974;23.708;2023-05-10T14:34:11;24.10;28.60
80214;DHT22;69531;37.974;23.708;2023-05-10T14:36:37;24.10;28.60
80214;DHT22;69531;37.974;23.708;2023-05-10T14:39:02;24.10;28.70
80214;DHT22;69531;37.974;23.708;2023-05-10T14:41:28;24.00;28.60
80214;DHT22;69531;37.974;23.708;2023-05-10T14:43:55;24.00;28.70
80214;DHT22;69531;37.974;23.708;2023-05-10T14:46:21;24.00;28.60
80214;DHT22;69531;37.974;23.708;2023-05-10T14:48:47;24.10;28.70
80214;DHT22;69531;37.974;23.708;2023-05-10T14:51:12;24.10;28.60
80214;DHT22;69531;37.974;23.708;2023-05-10T14:53:38;24.10;28.60
80214;DHT22;69531;37.974;23.708;2023-05-10T14:56:04;24.10;28.70
80214;DHT22;69531;37.974;23.708;2023-05-10T14:58:30;24.00;28.70
80214;DHT22;69531;37.974;23.708;2023-05-10T15:00:56;24.00;28.70
80214;DHT22;69531;37.974;23.708;2023-05-10T15:03:22;24.00;28.70
80214;DHT22;69531;37.974;23.708;2023-05-10T15:05:48;24.10;28.70
80214;DHT22;69531;37.974;23.708;2023-05-10T15:08:14;24.10;28.70
80214;DHT22;69531;37.974;23.708;2023-05-10T15:10:40;24.00;28.80
80214;DHT22;69531;37.974;23.708;2023-05-10T15:13:05;24.10;28.80
80214;DHT22;69531;37.974;23.708;2023-05-10T15:15:31;24.10;28.80
80214;DHT22;69531;37.974;23.708;2023-05-10T15:17:57;24.00;28.80
80214;DHT22;69531;37.974;23.708;2023-05-10T15:20:23;24.00;28.70
80214;DHT22;69531;37.974;23.708;2023-05-10T15:22:48;24.00;28.70
80214;DHT22;69531;37.974;23.708;2023-05-10T15:25:14;24.10;28.70
80214;DHT22;69531;37.974;23.708;2023-05-10T15:27:41;24.10;28.70
80214;DHT22;69531;37.974;23.708;2023-05-10T15:30:09;24.00;28.70
80214;DHT22;69531;37.974;23.708;2023-05-10T15:32:35;24.00;28.70
80214;DHT22;69531;37.974;23.708;2023-05-10T15:35:01;24.00;28.70
80214;DHT22;69531;37.974;23.708;2023-05-10T15:37:27;24.00;28.70
80214;DHT22;69531;37.974;23.708;2023-05-10T15:39:53;24.00;28.70
80214;DHT22;69531;37.974;23.708;2023-05-10T15:42:19;24.00;28.70
80214;DHT22;69531;37.974;23.708;2023-05-10T15:44:45;24.00;28.70
80214;DHT22;69531;37.974;23.708;2023-05-10T15:47:16;24.00;28.70
80214;DHT22;69531;37.974;23.708;2023-05-10T15:49:42;24.00;28.70